sensor_id;sensor_type;location;lat;lon;timestamp;temperature;humidity
10437;DHT22;5265;50.006;9.202;2023-04-03T03:23:22;3.00;99.90
10437;DHT22;5265;50.006;9.202;2023-04-03T03:25:49;3.30;99.90
10437;DHT22;5265;50.006;9.202;2023-04-03T03:28:20;3.20;99.90
10437;DHT22;5265;50.006;9.202;2023-04-03T03:30:48;3.20;99.90
10437;DHT22;5265;50.006;9.202;2023-04-03T03:33:16;3.10;99.90
10437;DHT22;5265;50.006;9.202;2023-04-03T03:35:43;3.20;99.90
10437;DHT22;5265;50.006;9.202;2023-04-03T03:38:11;3.20;99.90
10437;DHT22;5265;50.006;9.202;2023-04-03T03:40:39;3.10;99.90
10437;DHT22;5265;50.006;9.202;2023-04-03T03:43:07;3.20;99.90
10437;DHT22;5265;50.006;9.202;2023-04-03T03:45:34;3.40;99.90
10437;DHT22;5265;50.006;9.202;2023-04-03T03:48:01;3.50;99.90
10437;DHT22;5265;50.006;9.202;2023-04-03T03:50:29;3.50;99.90
10437;DHT22;5265;50.006;9.202;2023-04-03T03:52:56;3.30;99.90
10437;DHT22;5265;50.006;9.202;2023-04-03T03:55:23;3.40;99.90
10437;DHT22;5265;50.006;9.202;2023-04-03T03:57:55;3.30;99.90
10437;DHT22;5265;50.006;9.202;2023-04-03T04:00:22;3.20;99.90
10437;DHT22;5265;50.006;9.202;2023-04-03T04:02:53;3.20;99.90
10437;DHT22;5265;50.006;9.202;2023-04-03T04:05:22;3.00;99.90
10437;DHT22;5265;50.006;9.202;2023-04-03T04:07:51;3.00;99.90
10437;DHT22;5265;50.006;9.202;2023-04-03T04:10:18;3.10;99.90
10437;DHT22;5265;50.006;9.202;2023-04-03T04:12:45;3.20;99.90
10437;DHT22;5265;50.006;9.202;2023-04-03T04:15:17;3.30;99.90
10437;DHT22;5265;50.006;9.202;2023-04-03T04:17:44;3.30;99.90
10437;DHT22;5265;50.006;9.202;2023-04-03T04:20:12;3.40;99.90
10437;DHT22;5265;50.006;9.202;2023-04-03T04:22:40;3.30;99.90
10437;DHT22;5265;50.006;9.202;2023-04-03T04:25:08;3.30;99.90
10437;DHT22;5265;50.006;9.202;2023-04-03T04:27:37;3.30;99.90
10437;DHT22;5265;50.006;9.202;2023-04-03T04:30:05;3.20;99.90
10437;DHT22;5265;50.006;9.202;2023-04-03T04:32:34;3.20;99.90
10437;DHT22;5265;50.006;9.202;2023-04-03T04:35:01;3.20;99.90
10437;DHT22;5265;50.006;9.202;2023-04-03T04:37:31;3.20;99.90
10437;DHT22;5265;50.006;9.202;2023-04-03T04:40:00;3.30;99.90
10437;DHT22;5265;50.006;9.202;2023-04-03T04:42:28;3.30;99.90
10437;DHT22;5265;50.006;9.202;2023-04-03T04:44:55;3.30;99.90
10437;DHT22;5265;50.006;9.202;2023-04-03T04:47:23;3.40;99.90
10437;DHT22;5265;50.006;9.202;2023-04-03T04:49:51;3.40;99.90
10437;DHT22;5265;50.006;9.202;2023-04-03T04:52:19;3.50;99.90
10437;DHT22;5265;50.006;9.202;2023-04-03T04:54:46;3.30;99.90
10437;DHT22;5265;50.006;9.202;2023-04-03T04:57:14;3.20;99.90
10437;DHT22;5265;50.006;9.202;2023-04-03T04:59:41;3.30;99.90
10437;DHT22;5265;50.006;9.202;2023-04-03T05:02:09;3.00;99.90
10437;DHT22;5265;50.006;9.202;2023-04-03T05:04:37;3.10;99.90
10437;DHT22;5265;50.006;9.202;2023-04-03T05:07:12;3.00;99.90
10437;DHT22;5265;50.006;9.202;2023-04-03T05:09:39;3.10;99.90
10437;DHT22;5265;50.006;9.202;2023-04-03T05:12:09;2.80;99.90
10437;DHT22;5265;50.006;9.202;2023-04-03T05:14:42;3.00;99.90
10437;DHT22;5265;50.006;9.202;2023-04-03T05:17:10;2.90;99.90
10437;DHT22;5265;50.006;9.202;2023-04-03T05:19:41;2.90;99.90
10437;DHT22;5265;50.006;9.202;2023-04-03T05:22:10;2.80;99.90
10437;DHT22;5265;50.006;9.202;2023-04-03T05:24:39;2.80;99.90
10437;DHT22;5265;50.006;9.202;2023-04-03T05:27:07;3.00;99.90
10437;DHT22;5265;50.006;9.202;2023-04-03T05:29:38;3.20;99.90
10437;DHT22;5265;50.006;9.202;2023-04-03T05:32:12;2.90;99.90
10437;DHT22;5265;50.006;9.202;2023-04-03T05:34:39;2.90;99.90
10437;DHT22;5265;50.006;9.202;2023-04-03T05:37:07;2.80;99.90
10437;DHT22;5265;50.006;9.202;2023-04-03T05:39:34;2.80;99.90
10437;DHT22;5265;50.006;9.202;2023-04-03T05:42:04;2.90;99.90
10437;DHT22;5265;50.006;9.202;2023-04-03T05:44:31;2.80;99.90
10437;DHT22;5265;50.006;9.202;2023-04-03T05:46:58;2.90;99.90
10437;DHT22;5265;50.006;9.202;2023-04-03T05:49:25;2.80;99.90
10437;DHT22;5265;50.006;9.202;2023-04-03T05:51:52;2.90;99.90
10437;DHT22;5265;50.006;9.202;2023-04-03T05:54:25;2.80;99.90
10437;DHT22;5265;50.006;9.202;2023-04-03T05:57:00;2.60;99.90
10437;DHT22;5265;50.006;9.202;2023-04-03T05:59:29;2.80;99.90
10437;DHT22;5265;50.006;9.202;2023-04-03T06:01:59;2.70;99.90
10437;DHT22;5265;50.006;9.202;2023-04-03T06:04:27;2.70;99.90
10437;DHT22;5265;50.006;9.202;2023-04-03T06:06:54;2.80;99.90
10437;DHT22;5265;50.006;9.202;2023-04-03T06:09:23;2.80;99.90
10437;DHT22;5265;50.006;9.202;2023-04-03T06:11:50;2.90;99.90
10437;DHT22;5265;50.006;9.202;2023-04-03T06:14:19;2.70;99.90
10437;DHT22;5265;50.006;9.202;2023-04-03T06:16:47;2.80;99.90
10437;DHT22;5265;50.006;9.202;2023-04-03T06:19:15;2.90;99.90
10437;DHT22;5265;50.006;9.202;2023-04-03T06:21:47;2.90;99.90
10437;DHT22;5265;50.006;9.202;2023-04-03T06:24:15;2.80;99.90
10437;DHT22;5265;50.006;9.202;2023-04-03T06:26:41;3.00;99.90
10437;DHT22;5265;50.006;9.202;2023-04-03T06:29:09;3.00;99.90
10437;DHT22;5265;50.006;9.202;2023-04-03T06:31:36;3.10;99.90
10437;DHT22;5265;50.006;9.202;2023-04-03T06:34:05;3.10;99.90
10437;DHT22;5265;50.006;9.202;2023-04-03T06:36:32;3.10;99.90
10437;DHT22;5265;50.006;9.202;2023-04-03T06:39:00;3.10;99.90
10437;DHT22;5265;50.006;9.202;2023-04-03T06:41:27;3.10;99.90
10437;DHT22;5265;50.006;9.202;2023-04-03T06:43:54;3.20;99.90
10437;DHT22;5265;50.006;9.202;2023-04-03T06:46:22;3.40;99.90
10437;DHT22;5265;50.006;9.202;2023-04-03T06:48:49;3.70;99.90
10437;DHT22;5265;50.006;9.202;2023-04-03T06:51:19;3.50;99.90
10437;DHT22;5265;50.006;9.202;2023-04-03T06:53:46;3.50;99.90
10437;DHT22;5265;50.006;9.202;2023-04-03T06:56:13;3.70;99.90
10437;DHT22;5265;50.006;9.202;2023-04-03T06:58:41;3.70;99.90
10437;DHT22;5265;50.006;9.202;2023-04-03T07:01:09;3.80;99.90
10437;DHT22;5265;50.006;9.202;2023-04-03T07:03:36;3.90;99.90
10437;DHT22;5265;50.006;9.202;2023-04-03T07:06:04;4.20;99.90
10437;DHT22;5265;50.006;9.202;2023-04-03T07:08:33;3.80;99.90
10437;DHT22;5265;50.006;9.202;2023-04-03T07:11:00;4.20;99.90
10437;DHT22;5265;50.006;9.202;2023-04-03T07:13:27;3.90;99.90
10437;DHT22;5265;50.006;9.202;2023-04-03T07:15:54;4.20;99.90
10437;DHT22;5265;50.006;9.202;2023-04-03T07:18:21;4.60;99.90
10437;DHT22;5265;50.006;9.202;2023-04-03T07:20:48;4.20;99.90
10437;DHT22;5265;50.006;9.202;2023-04-03T07:23:15;4.40;99.90
10437;DHT22;5265;50.006;9.202;2023-04-03T07:25:44;4.10;99.90
10437;DHT22;5265;50.006;9.202;2023-04-03T07:28:12;4.80;99.90
10437;DHT22;5265;50.006;9.202;2023-04-03T07:30:43;4.50;99.90
10437;DHT22;5265;50.006;9.202;2023-04-03T07:33:11;4.30;99.90
10437;DHT22;5265;50.006;9.202;2023-04-03T07:35:38;4.50;99.90
10437;DHT22;5265;50.006;9.202;2023-04-03T07:38:05;4.60;99.90
10437;DHT22;5265;50.006;9.202;2023-04-03T07:40:32;4.90;99.90
10437;DHT22;5265;50.006;9.202;2023-04-03T07:43:01;4.60;99.90
10437;DHT22;5265;50.006;9.202;2023-04-03T07:45:28;4.90;99.90
10437;DHT22;5265;50.006;9.202;2023-04-03T07:47:55;4.70;99.90
10437;DHT22;5265;50.006;9.202;2023-04-03T07:50:23;4.80;99.90
10437;DHT22;5265;50.006;9.202;2023-04-03T07:52:50;4.60;99.90
10437;DHT22;5265;50.006;9.202;2023-04-03T07:55:18;4.80;99.90
10437;DHT22;5265;50.006;9.202;2023-04-03T07:57:45;4.80;99.90
10437;DHT22;5265;50.006;9.202;2023-04-03T08:00:14;5.20;99.90
10437;DHT22;5265;50.006;9.202;2023-04-03T08:02:43;4.80;99.90
10437;DHT22;5265;50.006;9.202;2023-04-03T08:05:16;5.00;99.90
10437;DHT22;5265;50.006;9.202;2023-04-03T08:07:43;5.00;99.90
10437;DHT22;5265;50.006;9.202;2023-04-03T08:10:09;5.10;99.90
10437;DHT22;5265;50.006;9.202;2023-04-03T08:12:37;5.20;99.90
10437;DHT22;5265;50.006;9.202;2023-04-03T08:15:04;5.50;99.90
10437;DHT22;5265;50.006;9.202;2023-04-03T08:17:34;5.40;99.90
10437;DHT22;5265;50.006;9.202;2023-04-03T08:20:01;5.50;99.90
10437;DHT22;5265;50.006;9.202;2023-04-03T08:22:29;5.50;99.90
10437;DHT22;5265;50.006;9.202;2023-04-03T08:24:56;5.80;99.90
10437;DHT22;5265;50.006;9.202;2023-04-03T08:27:23;5.90;99.90
10437;DHT22;5265;50.006;9.202;2023-04-03T08:29:50;5.90;99.90
10437;DHT22;5265;50.006;9.202;2023-04-03T08:32:17;6.00;99.90
10437;DHT22;5265;50.006;9.202;2023-04-03T08:34:46;6.40;99.90
10437;DHT22;5265;50.006;9.202;2023-04-03T08:37:13;6.50;99.90
10437;DHT22;5265;50.006;9.202;2023-04-03T08:39:41;6.50;99.90
10437;DHT22;5265;50.006;9.202;2023-04-03T08:42:12;6.60;99.90
10437;DHT22;5265;50.006;9.202;2023-04-03T08:44:44;6.50;99.90
10437;DHT22;5265;50.006;9.202;2023-04-03T08:47:17;6.70;99.90
10437;DHT22;5265;50.006;9.202;2023-04-03T08:49:47;6.70;99.90
10437;DHT22;5265;50.006;9.202;2023-04-03T08:52:17;6.80;99.90
10437;DHT22;5265;50.006;9.202;2023-04-03T08:54:48;7.10;99.90
10437;DHT22;5265;50.006;9.202;2023-04-03T08:57:15;7.10;99.90
10437;DHT22;5265;50.006;9.202;2023-04-03T08:59:44;7.20;99.90
10437;DHT22;5265;50.006;9.202;2023-04-03T09:02:17;7.00;99.90
10437;DHT22;5265;50.006;9.202;2023-04-03T09:04:46;7.00;99.90
10437;DHT22;5265;50.006;9.202;2023-04-03T09:07:15;6.90;99.90
10437;DHT22;5265;50.006;9.202;2023-04-03T09:09:46;6.60;99.90
10437;DHT22;5265;50.006;9.202;2023-04-03T09:12:17;6.70;99.90
10437;DHT22;5265;50.006;9.202;2023-04-03T09:14:46;6.70;99.90
10437;DHT22;5265;50.006;9.202;2023-04-03T09:17:20;6.70;99.90
10437;DHT22;5265;50.006;9.202;2023-04-03T09:19:51;6.70;99.90
10437;DHT22;5265;50.006;9.202;2023-04-03T09:22:22;6.60;99.90
10437;DHT22;5265;50.006;9.202;2023-04-03T09:24:52;6.60;99.90
10437;DHT22;5265;50.006;9.202;2023-04-03T09:27:22;6.90;99.90
10437;DHT22;5265;50.006;9.202;2023-04-03T09:29:52;7.20;99.90
10437;DHT22;5265;50.006;9.202;2023-04-03T09:32:21;7.40;99.90
10437;DHT22;5265;50.006;9.202;2023-04-03T09:34:50;7.60;99.90
10437;DHT22;5265;50.006;9.202;2023-04-03T09:37:39;7.90;99.90
10437;DHT22;5265;50.006;9.202;2023-04-03T09:40:12;8.10;99.90
10437;DHT22;5265;50.006;9.202;2023-04-03T09:42:54;8.20;99.90
10437;DHT22;5265;50.006;9.202;2023-04-03T09:45:22;8.60;99.90
10437;DHT22;5265;50.006;9.202;2023-04-03T09:47:52;8.50;99.90
10437;DHT22;5265;50.006;9.202;2023-04-03T09:50:32;8.70;99.90
10437;DHT22;5265;50.006;9.202;2023-04-03T09:52:59;8.70;99.90
10437;DHT22;5265;50.006;9.202;2023-04-03T09:55:31;8.90;99.90
10437;DHT22;5265;50.006;9.202;2023-04-03T09:57:59;8.80;99.90
10437;DHT22;5265;50.006;9.202;2023-04-03T10:00:28;9.00;99.90
10437;DHT22;5265;50.006;9.202;2023-04-03T10:02:57;9.00;99.90
10437;DHT22;5265;50.006;9.202;2023-04-03T10:05:35;9.10;99.90
10437;DHT22;5265;50.006;9.202;2023-04-03T10:08:07;9.20;99.90
10437;DHT22;5265;50.006;9.202;2023-04-03T10:10:34;9.20;99.90
10437;DHT22;5265;50.006;9.202;2023-04-03T10:13:05;9.20;99.90
10437;DHT22;5265;50.006;9.202;2023-04-03T10:15:35;9.30;99.90
10437;DHT22;5265;50.006;9.202;2023-04-03T10:18:04;9.40;99.90
10437;DHT22;5265;50.006;9.202;2023-04-03T10:20:35;9.20;99.90
10437;DHT22;5265;50.006;9.202;2023-04-03T10:23:11;9.20;99.90
10437;DHT22;5265;50.006;9.202;2023-04-03T10:25:42;9.20;99.90
10437;DHT22;5265;50.006;9.202;2023-04-03T10:28:11;9.30;99.90
10437;DHT22;5265;50.006;9.202;2023-04-03T10:30:45;9.10;99.90
10437;DHT22;5265;50.006;9.202;2023-04-03T10:33:23;9.30;99.90
10437;DHT22;5265;50.006;9.202;2023-04-03T10:35:59;9.20;99.90
10437;DHT22;5265;50.006;9.202;2023-04-03T10:38:31;9.10;99.90
10437;DHT22;5265;50.006;9.202;2023-04-03T10:41:01;9.10;99.90
10437;DHT22;5265;50.006;9.202;2023-04-03T10:43:33;9.10;99.90
10437;DHT22;5265;50.006;9.202;2023-04-03T10:46:03;9.10;99.90
10437;DHT22;5265;50.006;9.202;2023-04-03T10:48:46;9.20;99.90
10437;DHT22;5265;50.006;9.202;2023-04-03T10:51:21;9.40;99.90
10437;DHT22;5265;50.006;9.202;2023-04-03T10:53:51;9.30;99.90
10437;DHT22;5265;50.006;9.202;2023-04-03T10:56:22;9.20;99.90
10437;DHT22;5265;50.006;9.202;2023-04-03T10:58:56;9.20;99.90
10437;DHT22;5265;50.006;9.202;2023-04-03T11:01:26;9.10;99.90
10437;DHT22;5265;50.006;9.202;2023-04-03T11:03:57;9.10;99.90
10437;DHT22;5265;50.006;9.202;2023-04-03T11:06:28;9.20;99.90
10437;DHT22;5265;50.006;9.202;2023-04-03T11:08:59;9.10;99.90
10437;DHT22;5265;50.006;9.202;2023-04-03T11:11:30;9.10;99.90
10437;DHT22;5265;50.006;9.202;2023-04-03T11:13:59;9.10;99.90
10437;DHT22;5265;50.006;9.202;2023-04-03T11:16:29;9.10;99.90
10437;DHT22;5265;50.006;9.202;2023-04-03T11:18:58;9.00;99.90
10437;DHT22;5265;50.006;9.202;2023-04-03T11:21:28;9.00;99.90
10437;DHT22;5265;50.006;9.202;2023-04-03T11:23:57;9.00;99.90
10437;DHT22;5265;50.006;9.202;2023-04-03T11:26:26;8.90;99.90
10437;DHT22;5265;50.006;9.202;2023-04-03T11:28:56;8.80;99.90
10437;DHT22;5265;50.006;9.202;2023-04-03T11:31:38;8.80;99.90
10437;DHT22;5265;50.006;9.202;2023-04-03T11:34:13;8.90;99.90
10437;DHT22;5265;50.006;9.202;2023-04-03T11:36:46;8.80;99.90
10437;DHT22;5265;50.006;9.202;2023-04-03T11:39:17;8.90;99.90
10437;DHT22;5265;50.006;9.202;2023-04-03T11:41:46;8.90;99.90
10437;DHT22;5265;50.006;9.202;2023-04-03T11:44:29;9.00;99.90
10437;DHT22;5265;50.006;9.202;2023-04-03T11:46:57;9.10;99.90
10437;DHT22;5265;50.006;9.202;2023-04-03T11:55:35;9.40;99.90
10437;DHT22;5265;50.006;9.202;2023-04-03T11:58:02;9.50;99.90
10437;DHT22;5265;50.006;9.202;2023-04-03T12:09:04;9.80;99.90
10437;DHT22;5265;50.006;9.202;2023-04-03T12:11:49;9.70;99.90
10437;DHT22;5265;50.006;9.202;2023-04-03T12:14:18;9.80;99.90
10437;DHT22;5265;50.006;9.202;2023-04-03T12:16:46;9.80;99.90
10437;DHT22;5265;50.006;9.202;2023-04-03T12:22:15;9.90;99.90
10437;DHT22;5265;50.006;9.202;2023-04-03T12:24:43;10.00;99.90
10437;DHT22;5265;50.006;9.202;2023-04-03T12:27:20;10.10;99.70
10437;DHT22;5265;50.006;9.202;2023-04-03T12:29:50;10.10;99.50
10437;DHT22;5265;50.006;9.202;2023-04-03T12:32:22;10.20;99.70
10437;DHT22;5265;50.006;9.202;2023-04-03T12:34:55;10.30;99.80
10437;DHT22;5265;50.006;9.202;2023-04-03T12:37:34;10.50;99.90
10437;DHT22;5265;50.006;9.202;2023-04-03T12:40:06;10.80;99.90
10437;DHT22;5265;50.006;9.202;2023-04-03T12:42:44;10.90;99.90
10437;DHT22;5265;50.006;9.202;2023-04-03T12:45:17;11.30;99.90
10437;DHT22;5265;50.006;9.202;2023-04-03T12:47:45;11.70;99.90
10437;DHT22;5265;50.006;9.202;2023-04-03T12:50:19;12.10;99.70
10437;DHT22;5265;50.006;9.202;2023-04-03T12:52:51;12.20;98.10
10437;DHT22;5265;50.006;9.202;2023-04-03T12:55:19;12.60;98.10
10437;DHT22;5265;50.006;9.202;2023-04-03T12:57:48;12.60;97.30
10437;DHT22;5265;50.006;9.202;2023-04-03T13:00:27;12.70;97.10
10437;DHT22;5265;50.006;9.202;2023-04-03T13:02:54;12.30;96.80
10437;DHT22;5265;50.006;9.202;2023-04-03T13:05:22;12.50;97.60
10437;DHT22;5265;50.006;9.202;2023-04-03T13:07:49;12.60;96.60
10437;DHT22;5265;50.006;9.202;2023-04-03T13:10:18;11.90;96.90
10437;DHT22;5265;50.006;9.202;2023-04-03T13:12:47;11.50;95.40
10437;DHT22;5265;50.006;9.202;2023-04-03T13:15:16;11.60;96.80
10437;DHT22;5265;50.006;9.202;2023-04-03T13:17:44;11.80;96.10
10437;DHT22;5265;50.006;9.202;2023-04-03T13:20:14;11.70;95.00
10437;DHT22;5265;50.006;9.202;2023-04-03T13:22:45;11.60;92.80
10437;DHT22;5265;50.006;9.202;2023-04-03T13:25:15;11.90;92.80
10437;DHT22;5265;50.006;9.202;2023-04-03T13:27:43;12.20;89.50
10437;DHT22;5265;50.006;9.202;2023-04-03T13:30:23;12.30;90.30
10437;DHT22;5265;50.006;9.202;2023-04-03T13:32:50;12.60;90.50
10437;DHT22;5265;50.006;9.202;2023-04-03T13:35:28;13.10;90.20
10437;DHT22;5265;50.006;9.202;2023-04-03T13:37:56;13.50;89.90
10437;DHT22;5265;50.006;9.202;2023-04-03T13:40:23;13.70;89.40
10437;DHT22;5265;50.006;9.202;2023-04-03T13:42:59;14.00;87.60
10437;DHT22;5265;50.006;9.202;2023-04-03T13:45:27;13.60;87.30
10437;DHT22;5265;50.006;9.202;2023-04-03T13:48:06;13.40;90.00
10437;DHT22;5265;50.006;9.202;2023-04-03T13:50:40;13.30;88.90
10437;DHT22;5265;50.006;9.202;2023-04-03T13:53:16;13.10;87.40
10437;DHT22;5265;50.006;9.202;2023-04-03T13:55:52;12.90;88.50
10437;DHT22;5265;50.006;9.202;2023-04-03T13:58:22;13.00;88.30
10437;DHT22;5265;50.006;9.202;2023-04-03T14:00:53;13.00;84.00
10437;DHT22;5265;50.006;9.202;2023-04-03T14:03:21;12.20;87.00
10437;DHT22;5265;50.006;9.202;2023-04-03T14:05:48;12.00;87.40
10437;DHT22;5265;50.006;9.202;2023-04-03T14:08:15;11.80;88.30
10437;DHT22;5265;50.006;9.202;2023-04-03T14:10:42;11.70;88.30
10437;DHT22;5265;50.006;9.202;2023-04-03T14:13:11;11.50;88.70
10437;DHT22;5265;50.006;9.202;2023-04-03T14:15:38;11.80;86.70
10437;DHT22;5265;50.006;9.202;2023-04-03T14:18:09;11.60;84.30
10437;DHT22;5265;50.006;9.202;2023-04-03T14:20:36;11.20;85.90
10437;DHT22;5265;50.006;9.202;2023-04-03T14:23:04;12.10;90.00
10437;DHT22;5265;50.006;9.202;2023-04-03T14:25:31;12.80;88.00
10437;DHT22;5265;50.006;9.202;2023-04-03T14:27:59;13.00;85.90
10437;DHT22;5265;50.006;9.202;2023-04-03T14:30:27;12.90;87.30
10437;DHT22;5265;50.006;9.202;2023-04-03T14:32:55;13.00;86.80
10437;DHT22;5265;50.006;9.202;2023-04-03T14:35:24;13.40;86.70
10437;DHT22;5265;50.006;9.202;2023-04-03T14:37:51;13.80;85.80
10437;DHT22;5265;50.006;9.202;2023-04-03T14:40:20;13.50;82.10
10437;DHT22;5265;50.006;9.202;2023-04-03T14:42:47;13.80;84.50
10437;DHT22;5265;50.006;9.202;2023-04-03T14:45:15;14.30;85.20
10437;DHT22;5265;50.006;9.202;2023-04-03T14:47:43;14.70;82.00
10437;DHT22;5265;50.006;9.202;2023-04-03T14:50:12;14.80;85.30
10437;DHT22;5265;50.006;9.202;2023-04-03T14:52:42;15.00;82.30
10437;DHT22;5265;50.006;9.202;2023-04-03T14:55:11;15.00;81.50
10437;DHT22;5265;50.006;9.202;2023-04-03T14:57:38;14.80;83.90
10437;DHT22;5265;50.006;9.202;2023-04-03T15:00:07;15.10;84.40
10437;DHT22;5265;50.006;9.202;2023-04-03T15:02:35;15.20;82.80
10437;DHT22;5265;50.006;9.202;2023-04-03T15:05:03;15.40;83.30
10437;DHT22;5265;50.006;9.202;2023-04-03T15:07:32;15.60;81.80
10437;DHT22;5265;50.006;9.202;2023-04-03T15:10:02;15.60;82.50
10437;DHT22;5265;50.006;9.202;2023-04-03T15:12:30;15.90;82.00
10437;DHT22;5265;50.006;9.202;2023-04-03T15:14:57;16.20;81.40
10437;DHT22;5265;50.006;9.202;2023-04-03T15:17:24;16.40;81.90
10437;DHT22;5265;50.006;9.202;2023-04-03T15:19:51;16.50;82.30
10437;DHT22;5265;50.006;9.202;2023-04-03T15:22:19;15.80;78.00
10437;DHT22;5265;50.006;9.202;2023-04-03T15:24:46;15.60;80.10
10437;DHT22;5265;50.006;9.202;2023-04-03T15:27:15;15.70;80.30
10437;DHT22;5265;50.006;9.202;2023-04-03T15:29:42;15.50;79.90
10437;DHT22;5265;50.006;9.202;2023-04-03T15:32:09;15.50;79.70
10437;DHT22;5265;50.006;9.202;2023-04-03T15:34:37;15.70;78.20
10437;DHT22;5265;50.006;9.202;2023-04-03T15:37:04;15.80;77.70
10437;DHT22;5265;50.006;9.202;2023-04-03T15:39:31;16.00;76.40
10437;DHT22;5265;50.006;9.202;2023-04-03T15:41:59;16.30;78.00
10437;DHT22;5265;50.006;9.202;2023-04-03T15:44:33;16.60;77.00
10437;DHT22;5265;50.006;9.202;2023-04-03T15:47:01;16.70;79.30
10437;DHT22;5265;50.006;9.202;2023-04-03T15:49:28;16.30;77.20
10437;DHT22;5265;50.006;9.202;2023-04-03T15:51:55;16.10;74.30
10437;DHT22;5265;50.006;9.202;2023-04-03T15:54:23;16.10;76.80
10437;DHT22;5265;50.006;9.202;2023-04-03T15:56:51;16.00;74.70
10437;DHT22;5265;50.006;9.202;2023-04-03T15:59:18;15.70;75.00
10437;DHT22;5265;50.006;9.202;2023-04-03T16:01:46;15.90;75.80
10437;DHT22;5265;50.006;9.202;2023-04-03T16:04:14;16.40;73.00
10437;DHT22;5265;50.006;9.202;2023-04-03T16:06:41;16.50;74.70
10437;DHT22;5265;50.006;9.202;2023-04-03T16:09:09;16.60;74.80
10437;DHT22;5265;50.006;9.202;2023-04-03T16:11:36;16.80;75.20
10437;DHT22;5265;50.006;9.202;2023-04-03T16:14:05;17.30;76.40
10437;DHT22;5265;50.006;9.202;2023-04-03T16:16:32;17.50;75.60
10437;DHT22;5265;50.006;9.202;2023-04-03T16:19:01;17.80;75.30
10437;DHT22;5265;50.006;9.202;2023-04-03T16:21:28;17.70;74.80
10437;DHT22;5265;50.006;9.202;2023-04-03T16:23:56;17.40;73.80
10437;DHT22;5265;50.006;9.202;2023-04-03T16:26:23;17.50;74.30
10437;DHT22;5265;50.006;9.202;2023-04-03T16:28:51;17.40;73.80
10437;DHT22;5265;50.006;9.202;2023-04-03T16:31:18;16.80;73.70
10437;DHT22;5265;50.006;9.202;2023-04-03T16:33:45;16.70;73.80
10437;DHT22;5265;50.006;9.202;2023-04-03T16:36:14;16.60;73.60
10437;DHT22;5265;50.006;9.202;2023-04-03T16:38:41;16.60;73.00
10437;DHT22;5265;50.006;9.202;2023-04-03T16:41:08;16.60;72.60
10437;DHT22;5265;50.006;9.202;2023-04-03T16:43:35;16.50;73.10
10437;DHT22;5265;50.006;9.202;2023-04-03T16:46:03;16.40;73.80
10437;DHT22;5265;50.006;9.202;2023-04-03T16:48:30;16.40;73.50
10437;DHT22;5265;50.006;9.202;2023-04-03T16:50:57;16.60;73.30
10437;DHT22;5265;50.006;9.202;2023-04-03T16:53:26;16.70;73.40
10437;DHT22;5265;50.006;9.202;2023-04-03T16:55:53;16.50;73.10
10437;DHT22;5265;50.006;9.202;2023-04-03T16:58:20;16.20;74.20
10437;DHT22;5265;50.006;9.202;2023-04-03T17:00:48;16.20;73.70
10437;DHT22;5265;50.006;9.202;2023-04-03T17:03:15;15.90;73.30
10437;DHT22;5265;50.006;9.202;2023-04-03T17:05:42;15.60;73.70
10437;DHT22;5265;50.006;9.202;2023-04-03T17:08:10;15.40;74.10
10437;DHT22;5265;50.006;9.202;2023-04-03T17:10:40;15.20;74.10
10437;DHT22;5265;50.006;9.202;2023-04-03T17:13:08;15.00;72.90
10437;DHT22;5265;50.006;9.202;2023-04-03T17:15:35;15.00;73.30
10437;DHT22;5265;50.006;9.202;2023-04-03T17:18:02;14.70;73.10
10437;DHT22;5265;50.006;9.202;2023-04-03T17:20:29;14.50;73.50
10437;DHT22;5265;50.006;9.202;2023-04-03T17:22:59;14.30;74.30
10437;DHT22;5265;50.006;9.202;2023-04-03T17:25:26;14.10;75.50
10437;DHT22;5265;50.006;9.202;2023-04-03T17:27:55;13.90;78.30
10437;DHT22;5265;50.006;9.202;2023-04-03T17:30:22;14.00;80.00
10437;DHT22;5265;50.006;9.202;2023-04-03T17:32:49;14.00;80.60
10437;DHT22;5265;50.006;9.202;2023-04-03T17:35:16;13.70;79.60
10437;DHT22;5265;50.006;9.202;2023-04-03T17:37:44;13.50;81.10
10437;DHT22;5265;50.006;9.202;2023-04-03T17:40:11;13.30;82.50
10437;DHT22;5265;50.006;9.202;2023-04-03T17:42:39;12.60;82.60
10437;DHT22;5265;50.006;9.202;2023-04-03T17:45:08;11.90;84.30
10437;DHT22;5265;50.006;9.202;2023-04-03T17:47:35;11.30;86.80
10437;DHT22;5265;50.006;9.202;2023-04-03T17:50:03;10.60;88.00
10437;DHT22;5265;50.006;9.202;2023-04-03T17:52:30;10.20;90.00
10437;DHT22;5265;50.006;9.202;2023-04-03T17:54:58;9.80;91.30
10437;DHT22;5265;50.006;9.202;2023-04-03T17:57:26;9.70;91.80
10437;DHT22;5265;50.006;9.202;2023-04-03T17:59:53;9.20;92.40
10437;DHT22;5265;50.006;9.202;2023-04-03T18:02:21;9.10;93.20
10437;DHT22;5265;50.006;9.202;2023-04-03T18:04:49;8.90;93.50
10437;DHT22;5265;50.006;9.202;2023-04-03T18:07:16;8.70;94.10
10437;DHT22;5265;50.006;9.202;2023-04-03T18:09:44;8.60;94.30
10437;DHT22;5265;50.006;9.202;2023-04-03T18:12:12;8.40;94.70
10437;DHT22;5265;50.006;9.202;2023-04-03T18:14:39;8.20;95.20
10437;DHT22;5265;50.006;9.202;2023-04-03T18:17:07;8.10;95.30
10437;DHT22;5265;50.006;9.202;2023-04-03T18:19:35;7.90;96.20
10437;DHT22;5265;50.006;9.202;2023-04-03T18:22:03;7.70;96.70
10437;DHT22;5265;50.006;9.202;2023-04-03T18:24:32;7.50;97.30
10437;DHT22;5265;50.006;9.202;2023-04-03T18:27:01;7.30;97.60
10437;DHT22;5265;50.006;9.202;2023-04-03T18:29:29;7.30;97.90
10437;DHT22;5265;50.006;9.202;2023-04-03T18:31:58;7.10;97.70
10437;DHT22;5265;50.006;9.202;2023-04-03T18:34:27;7.00;98.20
10437;DHT22;5265;50.006;9.202;2023-04-03T18:36:55;6.90;98.60
10437;DHT22;5265;50.006;9.202;2023-04-03T18:39:25;6.80;98.70
10437;DHT22;5265;50.006;9.202;2023-04-03T18:41:52;6.70;98.60
10437;DHT22;5265;50.006;9.202;2023-04-03T18:44:20;6.70;98.80
10437;DHT22;5265;50.006;9.202;2023-04-03T18:46:48;6.80;99.10
10437;DHT22;5265;50.006;9.202;2023-04-03T18:49:16;6.70;99.60
10437;DHT22;5265;50.006;9.202;2023-04-03T18:51:43;6.40;99.90
10437;DHT22;5265;50.006;9.202;2023-04-03T18:54:11;6.40;99.90
10437;DHT22;5265;50.006;9.202;2023-04-03T18:56:38;6.30;99.90
10437;DHT22;5265;50.006;9.202;2023-04-03T18:59:06;6.20;99.90
10437;DHT22;5265;50.006;9.202;2023-04-03T19:01:33;6.00;99.90
10437;DHT22;5265;50.006;9.202;2023-04-03T19:04:00;6.00;99.90
10437;DHT22;5265;50.006;9.202;2023-04-03T19:06:28;5.90;99.90
10437;DHT22;5265;50.006;9.202;2023-04-03T19:08:55;5.90;99.90
10437;DHT22;5265;50.006;9.202;2023-04-03T19:11:23;5.80;99.90
10437;DHT22;5265;50.006;9.202;2023-04-03T19:13:50;5.60;99.90
10437;DHT22;5265;50.006;9.202;2023-04-03T19:16:18;5.60;99.90
10437;DHT22;5265;50.006;9.202;2023-04-03T19:18:45;5.50;99.90
10437;DHT22;5265;50.006;9.202;2023-04-03T19:21:12;5.40;99.90
10437;DHT22;5265;50.006;9.202;2023-04-03T19:23:39;5.30;99.90
10437;DHT22;5265;50.006;9.202;2023-04-03T19:26:07;5.30;99.90
10437;DHT22;5265;50.006;9.202;2023-04-03T19:28:36;5.20;99.90
10437;DHT22;5265;50.006;9.202;2023-04-03T19:31:09;5.20;99.90
10437;DHT22;5265;50.006;9.202;2023-04-03T19:33:37;5.10;99.90
10437;DHT22;5265;50.006;9.202;2023-04-03T19:36:05;5.50;99.90
10437;DHT22;5265;50.006;9.202;2023-04-03T19:38:33;5.10;99.90
10437;DHT22;5265;50.006;9.202;2023-04-03T19:40:59;5.10;99.90
10437;DHT22;5265;50.006;9.202;2023-04-03T19:43:27;5.10;99.90
10437;DHT22;5265;50.006;9.202;2023-04-03T19:45:55;5.10;99.90
10437;DHT22;5265;50.006;9.202;2023-04-03T19:48:23;4.90;99.90